createdAt,value
2018-06-03T02:08:57.265Z,33.80
2018-06-03T02:13:55.880Z,32.80
2018-06-03T02:16:28.843Z,34.20
2018-06-03T02:19:00.928Z,35.40
2018-06-03T02:21:32.600Z,40.00
2018-06-03T02:24:05.383Z,43.00
2018-06-03T02:26:38.117Z,42.80
2018-06-03T02:29:10.267Z,40.80
2018-06-03T02:31:42.269Z,40.80
2018-06-03T02:34:14.833Z,39.60
2018-06-03T02:36:47.465Z,41.80
2018-06-03T02:46:27.948Z,41.80
2018-06-03T02:49:00.878Z,42.60
2018-06-03T02:51:33.897Z,43.00
2018-06-03T02:54:06.238Z,43.20
2018-06-03T02:56:39.012Z,42.60
2018-06-03T02:59:11.291Z,41.80
2018-06-03T03:01:43.986Z,41.40
2018-06-03T03:04:16.026Z,38.60
2018-06-03T03:06:49.637Z,44.40
2018-06-03T03:09:21.798Z,40.60
2018-06-03T03:11:53.377Z,41.00
2018-06-03T03:14:25.296Z,41.60
2018-06-03T03:16:57.731Z,40.20
2018-06-03T03:21:53.753Z,38.60
2018-06-03T03:24:27.181Z,45.60
2018-06-03T03:36:39.785Z,37.40
2018-06-03T03:39:12.270Z,41.20
2018-06-03T03:41:45.125Z,41.20
2018-06-03T03:44:17.727Z,41.60
2018-06-03T03:46:50.015Z,39.00
2018-06-03T03:49:22.078Z,35.60
2018-06-03T03:51:54.285Z,39.40
2018-06-03T03:54:26.968Z,41.00
2018-06-03T03:56:59.279Z,37.40
2018-06-03T03:59:31.934Z,41.20
2018-06-03T04:02:04.412Z,40.40
2018-06-03T04:04:37.924Z,37.00
2018-06-03T04:07:10.513Z,40.80
2018-06-03T04:09:43.913Z,37.80
2018-06-03T07:15:38.560Z,30.20
2018-06-03T07:18:13.402Z,32.60
2018-06-03T07:20:46.437Z,31.80
2018-06-03T07:25:42.916Z,31.20
2018-06-03T07:28:18.435Z,32.60
2018-06-03T07:30:54.231Z,31.00
2018-06-03T07:33:28.978Z,32.40
2018-06-03T07:36:04.434Z,32.60
2018-06-03T07:38:40.212Z,32.60
2018-06-03T07:41:16.583Z,33.80
2018-06-03T07:43:52.151Z,33.20
2018-06-03T07:48:56.246Z,31.20
2018-06-03T07:51:33.428Z,31.60
2018-06-03T07:54:11.175Z,32.00
2018-06-03T07:56:49.471Z,32.20
2018-06-03T07:59:27.479Z,31.80
2018-06-03T08:52:23.843Z,27.80
2018-06-03T08:55:01.349Z,32.60
2018-06-03T08:57:38.157Z,32.00
2018-06-03T09:00:14.478Z,33.20
2018-06-03T09:02:51.116Z,31.60
2018-06-03T09:05:26.869Z,33.00
2018-06-03T09:08:03.589Z,31.80
2018-06-03T09:10:39.659Z,33.80
2018-06-03T09:13:16.933Z,33.20
2018-06-03T09:15:53.440Z,33.00
2018-06-03T09:18:32.007Z,30.60
2018-06-03T09:21:09.450Z,30.80
2018-06-03T09:23:48.585Z,32.20
2018-06-03T09:26:26.864Z,31.20
2018-06-03T09:29:04.808Z,31.20
2018-06-03T09:31:42.311Z,30.20
2018-06-03T09:34:19.155Z,32.00
2018-06-03T09:36:56.111Z,31.00
2018-06-03T09:39:34.413Z,32.20
2018-06-03T09:42:11.412Z,30.80
2018-06-03T09:44:47.523Z,32.00
2018-06-03T09:47:24.342Z,30.20
2018-06-03T09:50:02.889Z,31.00
2018-06-03T09:52:43.837Z,30.20
2018-06-03T09:55:23.906Z,30.40
2018-06-03T09:58:01.892Z,30.60
2018-06-03T10:00:39.066Z,29.20
2018-06-03T10:03:17.671Z,30.20
2018-06-03T10:05:55.126Z,30.00
2018-06-03T10:08:34.723Z,29.60
2018-06-03T10:11:14.112Z,30.20
2018-06-03T10:13:54.217Z,30.00
2018-06-03T10:16:33.110Z,29.40
2018-06-03T10:19:11.515Z,29.60
2018-06-03T10:21:49.156Z,30.00
2018-06-03T10:24:26.327Z,30.20
2018-06-03T10:27:02.188Z,30.20
2018-06-03T10:29:37.220Z,28.20
2018-06-03T10:32:13.713Z,28.20
2018-06-03T10:34:48.671Z,31.00
2018-06-03T10:37:23.308Z,28.40
2018-06-03T10:39:57.873Z,28.20
2018-06-03T10:42:33.123Z,29.40
2018-06-03T10:45:08.098Z,29.00
2018-06-03T10:47:43.606Z,29.60
2018-06-03T10:50:18.076Z,28.20
2018-06-03T10:52:52.836Z,28.40
2018-06-03T10:55:27.733Z,27.20
2018-06-03T10:58:01.683Z,27.20
2018-06-03T11:00:34.692Z,27.20
2018-06-03T11:03:06.954Z,27.20
2018-06-03T11:05:39.672Z,27.80
2018-06-03T11:08:13.370Z,28.40
2018-06-03T11:10:46.804Z,27.40
2018-06-03T11:13:19.645Z,29.60
2018-06-03T11:15:52.602Z,28.60
2018-06-03T11:18:25.705Z,27.80
2018-06-03T11:20:59.455Z,28.80
2018-06-03T11:23:33.729Z,28.60
2018-06-03T11:26:06.648Z,28.00
2018-06-03T11:28:40.149Z,27.20
2018-06-03T11:31:12.288Z,27.20
2018-06-03T11:33:45.266Z,27.60
2018-06-03T11:36:17.643Z,28.40
2018-06-03T11:38:53.060Z,27.20
2018-06-03T11:41:26.791Z,29.00
2018-06-03T11:43:59.137Z,27.20
2018-06-03T11:46:31.178Z,28.40
2018-06-03T11:49:04.411Z,28.20
2018-06-03T11:51:37.053Z,28.60
2018-06-03T11:54:10.652Z,27.40
2018-06-03T11:56:52.415Z,28.20
2018-06-03T11:59:38.639Z,27.60
2018-06-03T12:02:12.313Z,28.60
2018-06-03T12:04:45.098Z,28.40
2018-06-03T12:07:17.722Z,28.20
2018-06-03T12:09:50.099Z,28.20
2018-06-03T12:12:22.591Z,27.20
2018-06-03T12:14:54.910Z,28.00
2018-06-03T12:17:27.123Z,27.40
2018-06-03T12:38:39.890Z,27.20
2018-06-03T12:41:12.845Z,28.60
2018-06-03T12:43:46.194Z,27.20
2018-06-03T12:46:18.368Z,27.80
2018-06-03T12:48:50.796Z,28.00
2018-06-03T12:51:23.339Z,28.00
2018-06-03T12:53:55.746Z,28.20
2018-06-03T12:56:28.342Z,28.00
2018-06-03T12:59:00.884Z,27.00
2018-06-03T13:01:33.375Z,26.40
2018-06-03T13:04:06.205Z,27.20
2018-06-03T13:06:38.635Z,27.20
2018-06-03T13:09:10.993Z,27.40
2018-06-03T13:11:43.078Z,27.60
2018-06-03T13:14:15.659Z,28.20
2018-06-03T13:16:48.410Z,28.40
2018-06-03T13:19:21.369Z,28.60
2018-06-03T13:21:53.807Z,30.00
2018-06-03T13:24:25.770Z,28.60
2018-06-03T13:26:58.552Z,29.20
2018-06-03T13:29:31.380Z,29.60
2018-06-03T13:32:03.526Z,30.00
2018-06-03T13:34:35.738Z,30.40
2018-06-03T13:37:08.761Z,29.60
2018-06-03T13:39:42.030Z,29.20
2018-06-03T13:42:14.509Z,29.60
2018-06-03T13:44:47.048Z,29.20
2018-06-03T13:47:19.489Z,29.20
2018-06-03T13:49:52.815Z,30.20
2018-06-03T13:52:25.435Z,29.60
2018-06-03T13:54:57.810Z,32.00
2018-06-03T13:57:30.461Z,31.20
2018-06-03T14:00:03.759Z,30.60
2018-06-03T14:02:36.303Z,31.40
2018-06-03T14:05:08.212Z,30.20
2018-06-03T14:07:40.648Z,31.80
2018-06-03T14:10:13.367Z,31.20
2018-06-03T14:12:45.237Z,32.20
2018-06-03T14:15:17.316Z,32.00
2018-06-03T14:17:50.682Z,32.20
2018-06-03T14:20:23.469Z,32.40
2018-06-03T14:22:55.441Z,30.80
2018-06-03T14:25:28.183Z,28.00
2018-06-03T14:28:01.006Z,30.20
2018-06-03T14:30:33.905Z,27.20
2018-06-03T14:33:06.351Z,29.00
2018-06-03T14:35:39.274Z,29.40
2018-06-03T14:38:11.580Z,31.20
2018-06-03T14:40:45.049Z,30.20
2018-06-03T14:43:17.553Z,29.20
2018-06-03T14:45:50.188Z,30.20
2018-06-03T14:48:22.356Z,30.60
2018-06-03T14:50:55.222Z,31.80
2018-06-03T14:53:27.774Z,32.20
2018-06-03T14:55:59.910Z,32.80
2018-06-03T14:58:32.033Z,31.00
2018-06-03T15:01:05.133Z,31.60
2018-06-03T15:03:37.698Z,31.00
2018-06-03T15:06:10.383Z,31.40
2018-06-03T15:08:43.658Z,34.80
2018-06-03T15:11:15.641Z,32.40
2018-06-03T15:13:48.283Z,32.20
2018-06-03T15:16:21.513Z,32.20
2018-06-03T15:18:55.000Z,33.00
2018-06-03T15:21:27.318Z,33.20
2018-06-03T15:24:00.374Z,32.20
2018-06-03T15:26:32.791Z,32.20
2018-06-03T15:29:05.552Z,32.40
2018-06-03T15:31:38.324Z,31.00
2018-06-03T15:34:10.224Z,32.80
2018-06-03T15:36:43.395Z,33.20
2018-06-03T15:39:15.391Z,34.20
2018-06-03T15:41:48.595Z,33.00
2018-06-03T15:44:21.081Z,32.60
2018-06-03T15:46:53.277Z,32.80
2018-06-03T15:49:25.493Z,32.00
2018-06-03T15:51:58.581Z,32.20
2018-06-03T15:54:31.290Z,32.80
2018-06-03T15:57:03.626Z,30.80
2018-06-03T15:59:37.100Z,30.40
2018-06-03T16:02:10.376Z,31.40
2018-06-03T16:07:00.441Z,27.20
2018-06-03T16:09:33.583Z,30.20
2018-06-03T16:12:05.937Z,30.00
2018-06-03T16:14:38.595Z,30.20
2018-06-03T16:17:10.723Z,30.00
2018-06-03T16:19:43.054Z,30.20
2018-06-03T16:22:15.461Z,29.40
2018-06-03T16:24:48.469Z,29.20
2018-06-03T16:27:21.754Z,27.80
2018-06-03T16:29:54.517Z,28.40
2018-06-03T16:32:27.207Z,28.20
2018-06-03T16:35:00.627Z,28.60
2018-06-03T16:37:34.024Z,28.80
2018-06-03T16:40:07.379Z,28.20
2018-06-03T16:42:40.262Z,28.20
2018-06-03T16:45:13.503Z,28.20
2018-06-03T16:47:45.771Z,27.20
2018-06-03T16:50:18.519Z,28.00
2018-06-03T16:52:51.252Z,28.20
2018-06-03T16:55:23.661Z,27.20
2018-06-03T16:57:56.447Z,27.80
2018-06-03T17:00:28.971Z,27.20
2018-06-03T17:03:01.670Z,30.00
2018-06-03T17:05:34.687Z,28.00
2018-06-03T17:08:07.540Z,27.20
2018-06-03T17:10:39.757Z,29.00
2018-06-03T17:13:12.482Z,28.40
2018-06-03T17:15:44.799Z,27.60
2018-06-03T17:18:17.213Z,27.40
2018-06-03T17:20:49.253Z,27.20
2018-06-03T17:23:21.427Z,28.40
